createdAt,value
2023-12-15T00:00:06.987Z,2.00
2023-12-15T00:02:36.505Z,2.10
2023-12-15T00:05:04.817Z,2.10
2023-12-15T00:07:33.316Z,2.10
2023-12-15T00:10:01.448Z,2.20
2023-12-15T00:12:29.506Z,2.30
2023-12-15T00:14:57.611Z,2.30
2023-12-15T00:17:26.532Z,2.30
2023-12-15T00:19:56.083Z,2.40
2023-12-15T00:22:24.381Z,2.50
2023-12-15T00:24:52.415Z,2.40
2023-12-15T00:27:20.550Z,2.40
2023-12-15T00:29:48.606Z,2.50
2023-12-15T00:32:16.771Z,2.50
2023-12-15T00:34:44.811Z,2.50
2023-12-15T00:37:14.231Z,2.50
2023-12-15T00:39:43.209Z,2.50
2023-12-15T00:42:11.401Z,2.50
2023-12-15T00:44:39.957Z,2.30
2023-12-15T00:47:08.097Z,2.30
2023-12-15T00:49:36.304Z,2.30
2023-12-15T00:52:05.725Z,2.30
2023-12-15T00:54:37.294Z,2.20
2023-12-15T00:57:05.762Z,2.20
2023-12-15T00:59:33.968Z,2.20
2023-12-15T01:02:02.124Z,2.20
2023-12-15T01:04:31.023Z,2.10
2023-12-15T01:06:59.038Z,2.20
2023-12-15T01:09:27.865Z,2.10
2023-12-15T01:11:57.278Z,2.10
2023-12-15T01:14:25.404Z,2.10
2023-12-15T01:16:54.122Z,2.00
2023-12-15T01:19:22.212Z,2.00
2023-12-15T01:21:50.355Z,2.10
2023-12-15T01:24:21.220Z,2.10
2023-12-15T01:26:49.332Z,2.20
2023-12-15T01:29:18.812Z,2.20
2023-12-15T01:31:46.887Z,2.20
2023-12-15T01:34:15.071Z,2.20
2023-12-15T01:36:43.654Z,2.10
2023-12-15T01:39:11.793Z,2.00
2023-12-15T01:41:39.973Z,1.90
2023-12-15T01:44:07.989Z,1.90
2023-12-15T01:46:37.406Z,1.80
2023-12-15T01:49:05.970Z,1.70
2023-12-15T01:51:34.040Z,1.70
2023-12-15T01:54:02.084Z,1.60
2023-12-15T01:56:30.231Z,1.60
2023-12-15T01:58:58.317Z,1.50
2023-12-15T02:01:26.427Z,1.40
2023-12-15T02:03:56.046Z,1.40
2023-12-15T02:06:24.296Z,1.40
2023-12-15T02:08:52.468Z,1.50
2023-12-15T02:11:20.538Z,1.40
2023-12-15T02:13:48.634Z,1.50
2023-12-15T02:16:16.673Z,1.40
2023-12-15T02:18:45.123Z,1.50
2023-12-15T02:21:14.624Z,1.40
2023-12-15T02:23:45.140Z,1.30
2023-12-15T02:26:13.223Z,1.40
2023-12-15T02:28:41.283Z,1.50
2023-12-15T02:31:09.404Z,1.50
2023-12-15T02:33:37.619Z,1.60
2023-12-15T02:36:06.255Z,1.70
2023-12-15T02:38:34.302Z,1.70
2023-12-15T02:41:05.083Z,1.60
2023-12-15T02:43:33.242Z,1.50
2023-12-15T02:46:01.539Z,1.50
2023-12-15T02:48:29.742Z,1.50
2023-12-15T02:50:58.294Z,1.40
2023-12-15T02:53:26.348Z,1.30
2023-12-15T02:55:54.620Z,1.40
2023-12-15T02:58:23.025Z,1.30
2023-12-15T03:00:51.088Z,1.30
2023-12-15T03:03:19.227Z,1.30
2023-12-15T03:05:47.702Z,1.10
2023-12-15T03:08:15.799Z,1.10
2023-12-15T03:10:43.932Z,1.10
2023-12-15T03:13:12.020Z,1.10
2023-12-15T03:15:41.432Z,1.00
2023-12-15T03:18:09.487Z,1.00
2023-12-15T03:20:37.607Z,0.90
2023-12-15T03:23:05.853Z,0.90
2023-12-15T03:25:34.730Z,0.90
2023-12-15T03:28:02.817Z,0.90
2023-12-15T03:30:31.050Z,0.90
2023-12-15T03:33:01.922Z,0.90
2023-12-15T03:35:30.041Z,0.90
2023-12-15T03:37:58.143Z,1.00
2023-12-15T03:40:26.274Z,0.90
2023-12-15T03:42:54.401Z,0.90
2023-12-15T03:45:22.516Z,0.80
2023-12-15T03:47:50.712Z,0.80
2023-12-15T03:50:20.336Z,0.80
2023-12-15T03:52:48.733Z,0.80
2023-12-15T03:55:17.080Z,0.80
2023-12-15T03:57:45.162Z,0.80
2023-12-15T04:00:14.255Z,0.70
2023-12-15T04:02:46.113Z,0.80
2023-12-15T04:05:14.395Z,0.80
2023-12-15T04:07:44.075Z,0.80
2023-12-15T04:10:12.747Z,0.70
2023-12-15T04:12:40.870Z,0.80
2023-12-15T04:15:11.062Z,0.70
2023-12-15T04:17:43.892Z,0.70
2023-12-15T04:20:13.232Z,0.60
2023-12-15T04:22:42.836Z,0.80
2023-12-15T04:25:10.936Z,0.80
2023-12-15T04:27:40.520Z,0.80
2023-12-15T04:30:10.758Z,0.90
2023-12-15T04:32:38.985Z,0.90
2023-12-15T04:35:08.439Z,1.00
2023-12-15T04:37:36.849Z,1.00
2023-12-15T04:40:08.701Z,0.90
2023-12-15T04:42:36.740Z,0.90
2023-12-15T04:45:07.768Z,0.80
2023-12-15T04:47:36.254Z,1.00
2023-12-15T04:50:06.024Z,0.90
2023-12-15T04:52:34.838Z,0.90
2023-12-15T04:55:02.932Z,1.00
2023-12-15T04:57:32.470Z,1.00
2023-12-15T05:00:00.570Z,1.10
2023-12-15T05:02:28.681Z,1.20
2023-12-15T05:04:56.753Z,1.10
2023-12-15T05:07:24.783Z,1.20
2023-12-15T05:09:53.527Z,1.30
2023-12-15T05:12:21.685Z,1.30
2023-12-15T05:14:51.051Z,1.30
2023-12-15T05:17:19.709Z,1.50
2023-12-15T05:19:47.822Z,1.50
2023-12-15T05:22:15.983Z,1.50
2023-12-15T05:24:44.329Z,1.40
2023-12-15T05:27:12.434Z,1.50
2023-12-15T05:29:46.674Z,1.60
2023-12-15T05:32:19.232Z,1.50
2023-12-15T05:34:47.666Z,1.40
2023-12-15T05:37:16.052Z,1.40
2023-12-15T05:39:45.961Z,1.50
2023-12-15T05:42:14.791Z,1.50
2023-12-15T05:44:43.600Z,1.60
2023-12-15T05:47:11.803Z,1.60
2023-12-15T05:49:42.730Z,1.60
2023-12-15T05:52:12.054Z,1.70
2023-12-15T05:54:41.369Z,1.60
2023-12-15T05:57:12.808Z,1.60
2023-12-15T05:59:42.644Z,1.60
2023-12-15T06:02:11.239Z,1.60
2023-12-15T06:04:39.382Z,1.50
2023-12-15T06:07:08.879Z,1.40
2023-12-15T06:09:41.454Z,1.40
2023-12-15T06:12:12.314Z,1.50
2023-12-15T06:14:40.662Z,1.60
2023-12-15T06:17:08.899Z,1.60
2023-12-15T06:19:42.150Z,1.60
2023-12-15T06:22:11.979Z,1.50
2023-12-15T06:24:40.560Z,1.50
2023-12-15T06:27:08.629Z,1.40
2023-12-15T06:29:36.725Z,1.40
2023-12-15T06:32:06.150Z,1.50
2023-12-15T06:34:34.230Z,1.40
2023-12-15T06:37:02.341Z,1.50
2023-12-15T06:39:31.849Z,1.50
2023-12-15T06:41:59.998Z,1.60
2023-12-15T06:44:28.154Z,1.40
2023-12-15T06:46:56.759Z,1.40
2023-12-15T06:49:31.349Z,1.40
2023-12-15T06:51:59.802Z,1.40
2023-12-15T06:54:28.055Z,1.50
2023-12-15T06:56:57.999Z,1.50
2023-12-15T06:59:26.244Z,1.40
2023-12-15T07:01:54.348Z,1.40
2023-12-15T07:04:22.582Z,1.50
2023-12-15T07:06:51.082Z,1.50
2023-12-15T07:09:20.604Z,1.50
2023-12-15T07:11:48.827Z,1.40
2023-12-15T07:14:18.536Z,1.40
2023-12-15T07:16:46.722Z,1.60
2023-12-15T07:19:14.918Z,1.60
2023-12-15T07:21:43.112Z,1.60
2023-12-15T07:24:12.242Z,1.60
2023-12-15T07:26:40.923Z,1.70
2023-12-15T07:29:09.117Z,1.70
2023-12-15T07:31:38.563Z,1.60
2023-12-15T07:34:06.745Z,1.50
2023-12-15T07:36:34.848Z,1.40
2023-12-15T07:39:02.916Z,1.20
2023-12-15T07:41:30.992Z,1.20
2023-12-15T07:43:59.921Z,1.00
2023-12-15T07:46:29.705Z,1.00
2023-12-15T07:49:00.099Z,1.30
2023-12-15T07:51:28.201Z,1.30
2023-12-15T07:53:56.247Z,1.30
2023-12-15T07:56:26.050Z,1.30
2023-12-15T07:58:55.090Z,1.30
2023-12-15T08:01:24.114Z,1.20
2023-12-15T08:03:52.597Z,1.10
2023-12-15T08:06:22.451Z,1.10
2023-12-15T08:08:52.916Z,1.10
2023-12-15T08:11:21.375Z,1.20
2023-12-15T08:13:49.587Z,1.30
2023-12-15T08:16:17.801Z,1.40
2023-12-15T08:18:45.872Z,1.30
2023-12-15T08:21:14.015Z,1.30
2023-12-15T08:23:43.486Z,1.40
2023-12-15T08:26:20.266Z,1.40
2023-12-15T08:28:48.391Z,1.50
2023-12-15T08:31:17.015Z,1.50
2023-12-15T08:33:45.186Z,1.60
2023-12-15T08:36:13.303Z,1.60
2023-12-15T08:38:41.344Z,1.70
2023-12-15T08:41:11.681Z,1.70
2023-12-15T08:43:39.874Z,1.80
2023-12-15T08:46:08.542Z,1.60
2023-12-15T08:48:36.891Z,1.70
2023-12-15T08:51:05.325Z,1.70
2023-12-15T08:53:33.357Z,1.50
2023-12-15T08:56:01.487Z,1.50
2023-12-15T08:58:33.039Z,1.40
2023-12-15T09:01:01.298Z,0.90
2023-12-15T09:03:31.312Z,0.90
2023-12-15T09:06:17.769Z,0.80
2023-12-15T09:08:47.988Z,0.90
2023-12-15T09:11:16.519Z,0.80
2023-12-15T09:13:49.083Z,0.80
2023-12-15T09:16:18.014Z,0.80
2023-12-15T09:18:46.217Z,0.90
2023-12-15T09:21:14.298Z,0.80
2023-12-15T09:23:42.668Z,0.80
2023-12-15T09:26:10.807Z,0.70
2023-12-15T09:28:39.383Z,0.70
2023-12-15T09:31:13.039Z,0.70
2023-12-15T09:33:41.251Z,0.80
2023-12-15T09:36:10.939Z,0.80
2023-12-15T09:38:39.002Z,0.80
2023-12-15T09:41:07.978Z,0.80
2023-12-15T09:43:36.483Z,0.80
2023-12-15T09:46:05.836Z,0.70
2023-12-15T09:48:35.744Z,0.80
2023-12-15T09:51:07.288Z,0.80
2023-12-15T09:53:37.595Z,0.70
2023-12-15T09:56:07.179Z,0.70
2023-12-15T09:58:35.888Z,0.70
2023-12-15T10:01:06.111Z,0.80
2023-12-15T10:03:35.681Z,0.80
2023-12-15T10:06:04.319Z,0.80
2023-12-15T10:08:54.060Z,0.60
2023-12-15T10:11:31.245Z,0.70
2023-12-15T10:13:59.470Z,0.80
2023-12-15T10:16:29.414Z,0.90
2023-12-15T10:18:58.974Z,0.80
2023-12-15T10:21:28.542Z,0.90
2023-12-15T10:23:56.676Z,1.10
2023-12-15T10:26:24.983Z,1.10
2023-12-15T10:28:55.765Z,1.20
2023-12-15T10:31:26.594Z,1.30
2023-12-15T10:33:54.861Z,1.20
2023-12-15T10:36:24.546Z,1.40
2023-12-15T10:38:54.774Z,1.30
2023-12-15T10:41:22.929Z,1.10
2023-12-15T10:43:51.367Z,1.20
2023-12-15T10:46:22.383Z,1.20
2023-12-15T10:48:52.256Z,1.20
2023-12-15T10:51:22.281Z,1.30
2023-12-15T10:53:54.223Z,1.30
2023-12-15T10:56:23.669Z,1.00
2023-12-15T10:58:52.003Z,0.80
2023-12-15T11:01:20.936Z,1.00
2023-12-15T11:03:49.101Z,1.00
2023-12-15T11:06:27.691Z,1.10
2023-12-15T11:09:01.748Z,1.30
2023-12-15T11:11:32.089Z,1.20
2023-12-15T11:14:05.565Z,1.10
2023-12-15T11:16:38.100Z,1.00
2023-12-15T11:19:06.470Z,0.80
2023-12-15T11:21:35.573Z,0.70
2023-12-15T11:24:08.361Z,0.80
2023-12-15T11:26:39.298Z,0.90
2023-12-15T11:29:09.878Z,1.00
2023-12-15T11:31:41.949Z,1.00
2023-12-15T11:34:10.933Z,0.90
2023-12-15T11:36:43.303Z,1.00
2023-12-15T11:39:14.018Z,1.20
2023-12-15T11:41:43.641Z,1.10
2023-12-15T11:44:12.239Z,1.10
2023-12-15T11:46:40.356Z,0.90
2023-12-15T11:49:09.950Z,0.90
2023-12-15T11:51:39.042Z,1.00
2023-12-15T11:54:08.155Z,1.00
2023-12-15T11:56:37.611Z,1.00
2023-12-15T11:59:05.738Z,1.10
2023-12-15T12:01:37.024Z,1.00
2023-12-15T12:04:06.348Z,0.90
2023-12-15T12:06:34.904Z,0.70
2023-12-15T12:09:04.248Z,0.80
2023-12-15T12:11:32.664Z,0.70
2023-12-15T12:14:04.760Z,0.80
2023-12-15T12:16:34.532Z,0.80
2023-12-15T12:19:03.590Z,0.70
2023-12-15T12:21:32.981Z,0.90
2023-12-15T12:24:02.063Z,0.90
2023-12-15T12:26:30.660Z,1.00
2023-12-15T12:29:02.565Z,0.80
2023-12-15T12:31:32.784Z,1.00
2023-12-15T12:34:00.962Z,1.10
2023-12-15T12:36:29.937Z,1.30
2023-12-15T12:38:58.099Z,1.40
2023-12-15T12:41:26.242Z,1.60
2023-12-15T12:43:54.925Z,1.60
2023-12-15T12:46:26.007Z,1.50
2023-12-15T12:48:55.549Z,1.50
2023-12-15T12:51:24.466Z,1.40
2023-12-15T12:53:53.044Z,1.50
2023-12-15T12:56:22.700Z,1.70
2023-12-15T12:58:50.882Z,1.90
2023-12-15T13:01:19.036Z,1.30
2023-12-15T13:03:48.222Z,1.10
2023-12-15T13:06:18.174Z,1.20
2023-12-15T13:08:46.425Z,1.00
2023-12-15T13:11:14.594Z,1.00
2023-12-15T13:13:42.714Z,0.90
2023-12-15T13:16:14.257Z,0.90
2023-12-15T13:18:43.513Z,1.10
2023-12-15T13:21:11.590Z,1.20
2023-12-15T13:23:41.103Z,1.10
2023-12-15T13:26:10.018Z,1.20
2023-12-15T13:28:40.136Z,1.20
2023-12-15T13:31:08.334Z,1.20
2023-12-15T13:33:37.723Z,1.20
2023-12-15T13:36:13.186Z,1.20
2023-12-15T13:38:46.425Z,1.20
2023-12-15T13:41:15.424Z,1.00
2023-12-15T13:43:43.979Z,1.10
2023-12-15T13:46:12.135Z,1.10
2023-12-15T13:48:40.992Z,1.20
2023-12-15T13:51:10.201Z,1.20
2023-12-15T13:53:38.528Z,1.10
2023-12-15T13:56:09.062Z,1.30
2023-12-15T13:58:37.356Z,1.30
2023-12-15T14:01:05.836Z,1.30
2023-12-15T14:03:33.999Z,1.30
2023-12-15T14:06:02.888Z,1.40
2023-12-15T14:08:31.697Z,1.50
2023-12-15T14:11:02.596Z,1.60
2023-12-15T14:13:34.522Z,1.60
2023-12-15T14:16:08.620Z,1.60
2023-12-15T14:18:39.651Z,1.60
2023-12-15T14:21:09.339Z,1.60
2023-12-15T14:23:37.858Z,1.60
2023-12-15T14:26:06.142Z,1.60
2023-12-15T14:28:35.999Z,1.70
2023-12-15T14:31:04.679Z,1.60
2023-12-15T14:33:33.128Z,1.60
2023-12-15T14:36:01.294Z,1.40
2023-12-15T14:38:29.530Z,1.30
2023-12-15T14:40:58.935Z,1.10
2023-12-15T14:43:28.148Z,1.20
2023-12-15T14:45:58.460Z,1.10
2023-12-15T14:48:27.004Z,1.10
2023-12-15T14:50:55.345Z,1.00
2023-12-15T14:53:24.003Z,0.90
2023-12-15T14:55:52.052Z,0.90
2023-12-15T14:58:20.365Z,1.00
2023-12-15T15:00:48.510Z,1.10
2023-12-15T15:03:18.206Z,1.20
2023-12-15T15:05:46.401Z,1.20
2023-12-15T15:08:14.968Z,1.20
2023-12-15T15:10:43.382Z,1.20
2023-12-15T15:13:11.395Z,1.20
2023-12-15T15:15:39.454Z,1.10
2023-12-15T15:18:08.445Z,1.20
2023-12-15T15:20:39.339Z,1.20
2023-12-15T15:23:07.421Z,1.10
2023-12-15T15:25:35.535Z,1.20
2023-12-15T15:28:04.053Z,1.20
2023-12-15T15:30:32.100Z,1.20
2023-12-15T15:33:00.285Z,1.20
2023-12-15T15:35:29.819Z,1.20
2023-12-15T15:38:00.764Z,1.30
2023-12-15T15:40:28.783Z,1.20
2023-12-15T15:42:57.580Z,1.20
2023-12-15T15:45:26.280Z,1.20
2023-12-15T15:47:55.510Z,1.10
2023-12-15T15:50:23.772Z,1.10
2023-12-15T15:52:51.925Z,1.10
2023-12-15T15:55:21.552Z,1.00
2023-12-15T15:57:50.357Z,1.20
2023-12-15T16:00:20.851Z,1.20
2023-12-15T16:02:49.397Z,1.20
2023-12-15T16:05:17.804Z,1.30
2023-12-15T16:07:46.205Z,1.20
2023-12-15T16:10:15.484Z,1.20
2023-12-15T16:12:45.806Z,1.20
2023-12-15T16:15:14.025Z,1.00
2023-12-15T16:17:42.462Z,1.00
2023-12-15T16:20:11.683Z,1.00
2023-12-15T16:22:40.508Z,1.10
2023-12-15T16:25:09.946Z,1.00
2023-12-15T16:27:39.185Z,1.00
2023-12-15T16:30:10.115Z,1.00
2023-12-15T16:32:38.377Z,1.20
2023-12-15T16:35:07.414Z,1.10
2023-12-15T16:37:36.257Z,1.20
2023-12-15T16:40:05.849Z,1.20
2023-12-15T16:42:34.184Z,1.20
2023-12-15T16:45:02.303Z,1.10
2023-12-15T16:47:31.723Z,1.10
2023-12-15T16:50:00.115Z,1.10
2023-12-15T16:52:28.290Z,1.10
2023-12-15T16:54:56.414Z,1.10
2023-12-15T16:57:24.734Z,1.20
2023-12-15T16:59:53.213Z,1.20
2023-12-15T17:02:21.263Z,1.10
2023-12-15T17:04:50.929Z,1.00
2023-12-15T17:07:19.262Z,1.00
2023-12-15T17:09:47.376Z,1.00
2023-12-15T17:12:15.528Z,1.00
2023-12-15T17:14:43.564Z,0.90
2023-12-15T17:17:11.602Z,1.00
2023-12-15T17:19:39.793Z,1.10
2023-12-15T17:22:09.673Z,1.10
2023-12-15T17:24:39.145Z,1.20
2023-12-15T17:27:08.161Z,1.00
2023-12-15T17:29:44.087Z,1.00
2023-12-15T17:32:18.359Z,1.10
2023-12-15T17:34:46.702Z,1.30
2023-12-15T17:37:16.444Z,1.30
2023-12-15T17:39:44.744Z,1.10
2023-12-15T17:42:14.095Z,1.10
2023-12-15T17:44:42.923Z,1.10
2023-12-15T17:47:11.100Z,1.00
2023-12-15T17:49:39.519Z,1.00
2023-12-15T17:52:07.861Z,1.10
2023-12-15T17:54:39.699Z,1.00
2023-12-15T17:57:08.037Z,1.20
2023-12-15T17:59:36.160Z,1.20
2023-12-15T18:02:06.462Z,1.20
2023-12-15T18:04:36.031Z,1.40
2023-12-15T18:07:05.187Z,1.50
2023-12-15T18:09:33.351Z,1.50
2023-12-15T18:12:03.048Z,1.40
2023-12-15T18:14:31.126Z,1.50
2023-12-15T18:16:59.189Z,1.10
2023-12-15T18:19:27.373Z,1.10
2023-12-15T18:21:55.627Z,1.10
2023-12-15T18:24:23.759Z,1.00
2023-12-15T18:26:51.876Z,1.00
2023-12-15T18:29:25.868Z,1.10
2023-12-15T18:31:54.111Z,1.30
2023-12-15T18:34:22.826Z,1.20
2023-12-15T18:36:51.193Z,0.90
2023-12-15T18:39:20.270Z,0.90
2023-12-15T18:41:49.138Z,0.70
2023-12-15T18:44:17.664Z,0.80
2023-12-15T18:46:47.530Z,0.90
2023-12-15T18:49:15.968Z,1.00
2023-12-15T18:51:44.343Z,0.60
2023-12-15T18:54:14.624Z,0.60
2023-12-15T18:56:44.568Z,0.80
2023-12-15T18:59:15.178Z,0.80
2023-12-15T19:01:43.380Z,1.00
2023-12-15T19:04:13.380Z,1.00
2023-12-15T19:06:42.143Z,0.90
2023-12-15T19:09:12.128Z,1.00
2023-12-15T19:11:40.327Z,0.80
2023-12-15T19:14:08.764Z,0.80
2023-12-15T19:16:37.140Z,0.80
2023-12-15T19:19:06.432Z,0.70
2023-12-15T19:21:36.031Z,0.80
2023-12-15T19:24:06.356Z,0.80
2023-12-15T19:26:34.473Z,0.90
2023-12-15T19:29:02.711Z,1.00
2023-12-15T19:31:30.876Z,1.10
2023-12-15T19:33:59.276Z,1.20
2023-12-15T19:36:27.533Z,0.90
2023-12-15T19:38:56.995Z,1.00
2023-12-15T19:41:25.537Z,1.10
2023-12-15T19:43:55.504Z,1.00
2023-12-15T19:46:24.737Z,1.00
2023-12-15T19:48:53.968Z,1.10
2023-12-15T19:51:22.997Z,1.10
2023-12-15T19:53:51.512Z,1.00
2023-12-15T19:56:26.134Z,0.80
2023-12-15T19:58:54.859Z,0.70
2023-12-15T20:01:30.855Z,0.70
2023-12-15T20:04:01.038Z,0.70
2023-12-15T20:06:31.167Z,0.80
2023-12-15T20:08:59.952Z,0.70
2023-12-15T20:11:29.443Z,0.80
2023-12-15T20:13:57.519Z,0.80
2023-12-15T20:16:25.709Z,0.80
2023-12-15T20:18:56.929Z,0.90
2023-12-15T20:21:25.016Z,0.70
2023-12-15T20:23:53.021Z,0.70
2023-12-15T20:26:21.135Z,0.70
2023-12-15T20:28:50.616Z,0.80
2023-12-15T20:31:19.482Z,0.90
2023-12-15T20:33:50.500Z,0.90
2023-12-15T20:36:20.370Z,0.90
2023-12-15T20:38:49.267Z,0.90
2023-12-15T20:41:21.013Z,0.80
2023-12-15T20:43:51.562Z,0.80
2023-12-15T20:46:19.987Z,0.80
2023-12-15T20:48:49.246Z,0.50
2023-12-15T20:51:23.080Z,0.60
2023-12-15T20:53:51.305Z,0.60
2023-12-15T20:56:26.717Z,0.60
2023-12-15T20:58:56.645Z,0.60
2023-12-15T21:01:25.607Z,0.60
2023-12-15T21:03:54.049Z,0.60
2023-12-15T21:06:22.819Z,0.60
2023-12-15T21:08:54.349Z,0.60
2023-12-15T21:11:24.743Z,0.70
2023-12-15T21:13:55.396Z,0.80
2023-12-15T21:16:30.849Z,0.90
2023-12-15T21:19:05.238Z,0.90
2023-12-15T21:21:35.836Z,0.90
2023-12-15T21:24:04.623Z,1.10
2023-12-15T21:26:32.870Z,1.10
2023-12-15T21:29:00.988Z,1.20
2023-12-15T21:31:32.297Z,1.20
2023-12-15T21:34:00.627Z,1.20
2023-12-15T21:36:28.905Z,1.20
2023-12-15T21:38:56.993Z,1.10
2023-12-15T21:41:25.164Z,1.20
2023-12-15T21:43:54.035Z,1.30
2023-12-15T21:46:22.534Z,1.40
2023-12-15T21:48:52.574Z,1.40
2023-12-15T21:51:23.166Z,1.40
2023-12-15T21:53:51.278Z,1.30
2023-12-15T21:56:20.073Z,1.20
2023-12-15T21:58:48.155Z,1.40
2023-12-15T22:01:17.427Z,1.50
2023-12-15T22:03:49.967Z,1.40
2023-12-15T22:06:21.408Z,1.30
2023-12-15T22:08:49.814Z,1.50
2023-12-15T22:11:18.798Z,1.50
2023-12-15T22:13:47.218Z,1.50
2023-12-15T22:16:15.361Z,1.50
2023-12-15T22:18:44.337Z,1.60
2023-12-15T22:21:12.577Z,1.60
2023-12-15T22:23:42.548Z,1.70
2023-12-15T22:26:11.438Z,1.70
2023-12-15T22:28:39.626Z,1.60
2023-12-15T22:31:08.352Z,1.60
2023-12-15T22:33:37.211Z,1.70
2023-12-15T22:36:05.999Z,1.80
2023-12-15T22:38:36.361Z,1.70
2023-12-15T22:41:06.022Z,1.60
2023-12-15T22:43:34.276Z,1.50
2023-12-15T22:46:03.362Z,1.30
2023-12-15T22:48:32.398Z,1.30
2023-12-15T22:51:00.457Z,1.30
2023-12-15T22:53:28.543Z,1.10
2023-12-15T22:55:57.054Z,0.90
2023-12-15T22:58:26.509Z,0.80
2023-12-15T23:00:54.723Z,0.70
2023-12-15T23:03:22.827Z,0.70
2023-12-15T23:05:51.556Z,0.70
2023-12-15T23:08:19.579Z,0.60
2023-12-15T23:10:47.717Z,0.60
2023-12-15T23:13:15.811Z,0.70
2023-12-15T23:15:46.252Z,0.70
2023-12-15T23:18:14.715Z,0.70
2023-12-15T23:20:42.738Z,0.50
2023-12-15T23:23:10.762Z,0.60
2023-12-15T23:25:39.615Z,0.60
2023-12-15T23:28:07.723Z,0.50
2023-12-15T23:30:35.941Z,0.50
2023-12-15T23:33:05.579Z,0.40
2023-12-15T23:35:34.001Z,0.50
2023-12-15T23:38:02.146Z,0.60
2023-12-15T23:40:30.211Z,0.80
2023-12-15T23:42:58.348Z,0.90
2023-12-15T23:45:26.365Z,1.00
2023-12-15T23:47:54.520Z,0.80
2023-12-15T23:50:24.670Z,0.80
2023-12-15T23:52:52.838Z,0.70
2023-12-15T23:55:20.873Z,0.70
2023-12-15T23:57:48.986Z,0.70
